sensor_id;sensor_type;location;lat;lon;timestamp;pressure;altitude;pressure_sealevel;temperature;humidity
71768;BME280;59604;52.138;5.446;2023-02-12T00:00:06;104028.28;;;7.33;98.09
71768;BME280;59604;52.138;5.446;2023-02-12T00:02:37;104029.19;;;7.32;97.99
71768;BME280;59604;52.138;5.446;2023-02-12T00:05:11;104019.63;;;7.31;97.92
71768;BME280;59604;52.138;5.446;2023-02-12T00:07:45;104029.19;;;7.32;97.92
71768;BME280;59604;52.138;5.446;2023-02-12T00:10:18;104031.91;;;7.31;98.09
71768;BME280;59604;52.138;5.446;2023-02-12T00:12:52;104017.97;;;7.30;98.13
71768;BME280;59604;52.138;5.446;2023-02-12T00:15:23;104017.13;;;7.30;98.18
71768;BME280;59604;52.138;5.446;2023-02-12T00:17:59;104018.13;;;7.27;98.54
71768;BME280;59604;52.138;5.446;2023-02-12T00:20:29;104020.75;;;7.27;98.17
71768;BME280;59604;52.138;5.446;2023-02-12T00:23:00;104021.69;;;7.26;98.56
71768;BME280;59604;52.138;5.446;2023-02-12T00:25:40;104024.47;;;7.23;98.19
71768;BME280;59604;52.138;5.446;2023-02-12T00:28:11;104023.66;;;7.22;98.12
71768;BME280;59604;52.138;5.446;2023-02-12T00:30:47;104026.34;;;7.21;98.39
71768;BME280;59604;52.138;5.446;2023-02-12T00:33:18;104029.06;;;7.19;98.27
71768;BME280;59604;52.138;5.446;2023-02-12T00:35:56;104022.13;;;7.18;98.50
71768;BME280;59604;52.138;5.446;2023-02-12T00:38:41;104027.44;;;7.17;98.48
71768;BME280;59604;52.138;5.446;2023-02-12T00:41:13;104021.34;;;7.16;98.42
71768;BME280;59604;52.138;5.446;2023-02-12T00:43:43;104024.06;;;7.15;98.40
71768;BME280;59604;52.138;5.446;2023-02-12T00:46:15;104023.25;;;7.14;98.78
71768;BME280;59604;52.138;5.446;2023-02-12T00:48:47;104025.75;;;7.16;98.74
71768;BME280;59604;52.138;5.446;2023-02-12T00:51:20;104019.69;;;7.15;98.76
71768;BME280;59604;52.138;5.446;2023-02-12T00:53:53;104025.84;;;7.14;98.83
71768;BME280;59604;52.138;5.446;2023-02-12T00:56:24;104019.00;;;7.12;98.38
71768;BME280;59604;52.138;5.446;2023-02-12T00:59:00;104020.78;;;7.11;98.64
71768;BME280;59604;52.138;5.446;2023-02-12T01:01:33;104020.78;;;7.11;99.09
71768;BME280;59604;52.138;5.446;2023-02-12T01:04:07;104023.56;;;7.08;98.74
71768;BME280;59604;52.138;5.446;2023-02-12T01:06:39;104022.81;;;7.06;98.96
71768;BME280;59604;52.138;5.446;2023-02-12T01:09:17;104018.59;;;7.04;98.79
71768;BME280;59604;52.138;5.446;2023-02-12T01:11:50;104035.16;;;7.04;99.11
71768;BME280;59604;52.138;5.446;2023-02-12T01:14:22;104026.47;;;7.04;99.39
71768;BME280;59604;52.138;5.446;2023-02-12T01:16:56;104021.22;;;7.04;99.33
71768;BME280;59604;52.138;5.446;2023-02-12T01:19:28;104027.38;;;7.02;98.91
71768;BME280;59604;52.138;5.446;2023-02-12T01:21:58;104022.97;;;7.03;99.15
71768;BME280;59604;52.138;5.446;2023-02-12T01:24:28;104022.97;;;7.03;98.97
71768;BME280;59604;52.138;5.446;2023-02-12T01:27:00;104022.13;;;7.02;99.17
71768;BME280;59604;52.138;5.446;2023-02-12T01:29:32;104021.28;;;7.02;98.79
71768;BME280;59604;52.138;5.446;2023-02-12T01:32:04;104033.53;;;7.01;99.01
71768;BME280;59604;52.138;5.446;2023-02-12T01:34:36;104024.00;;;7.00;99.29
71768;BME280;59604;52.138;5.446;2023-02-12T01:37:12;104020.53;;;7.00;98.99
71768;BME280;59604;52.138;5.446;2023-02-12T01:39:44;104018.00;;;6.98;99.37
71768;BME280;59604;52.138;5.446;2023-02-12T01:42:18;104022.50;;;6.96;99.27
71768;BME280;59604;52.138;5.446;2023-02-12T01:47:45;104028.63;;;6.95;98.98
71768;BME280;59604;52.138;5.446;2023-02-12T01:50:19;104027.06;;;6.93;99.51
71768;BME280;59604;52.138;5.446;2023-02-12T01:52:53;104029.75;;;6.91;99.40
71768;BME280;59604;52.138;5.446;2023-02-12T01:55:25;104027.22;;;6.90;99.57
71768;BME280;59604;52.138;5.446;2023-02-12T01:57:59;104028.22;;;6.87;99.08
71768;BME280;59604;52.138;5.446;2023-02-12T02:00:32;104024.00;;;6.85;99.47
71768;BME280;59604;52.138;5.446;2023-02-12T02:03:05;104027.81;;;6.79;99.60
71768;BME280;59604;52.138;5.446;2023-02-12T02:05:58;104020.13;;;6.76;99.50
71768;BME280;59604;52.138;5.446;2023-02-12T02:08:31;104019.53;;;6.71;99.39
71768;BME280;59604;52.138;5.446;2023-02-12T02:11:01;104018.06;;;6.65;99.56
71768;BME280;59604;52.138;5.446;2023-02-12T02:13:55;104022.78;;;6.59;99.49
71768;BME280;59604;52.138;5.446;2023-02-12T02:16:49;104030.06;;;6.53;99.70
71768;BME280;59604;52.138;5.446;2023-02-12T02:19:49;104023.31;;;6.49;99.58
71768;BME280;59604;52.138;5.446;2023-02-12T02:37:04;104021.69;;;6.47;100.00
71768;BME280;59604;52.138;5.446;2023-02-12T02:39:51;104015.50;;;6.48;100.00
71768;BME280;59604;52.138;5.446;2023-02-12T02:42:34;104016.44;;;6.47;100.00
71768;BME280;59604;52.138;5.446;2023-02-12T02:48:05;104010.47;;;6.45;100.00
71768;BME280;59604;52.138;5.446;2023-02-12T02:50:42;104006.56;;;6.36;100.00
71768;BME280;59604;52.138;5.446;2023-02-12T02:53:29;104007.91;;;6.27;100.00
71768;BME280;59604;52.138;5.446;2023-02-12T02:56:01;104004.59;;;6.24;100.00
71768;BME280;59604;52.138;5.446;2023-02-12T02:58:45;104008.91;;;6.25;100.00
71768;BME280;59604;52.138;5.446;2023-02-12T03:01:35;104000.34;;;6.21;100.00
71768;BME280;59604;52.138;5.446;2023-02-12T03:04:16;104001.53;;;6.16;100.00
71768;BME280;59604;52.138;5.446;2023-02-12T03:07:15;103998.31;;;6.11;100.00
71768;BME280;59604;52.138;5.446;2023-02-12T03:09:51;103996.44;;;5.97;100.00
71768;BME280;59604;52.138;5.446;2023-02-12T03:12:40;103998.25;;;5.95;100.00
71768;BME280;59604;52.138;5.446;2023-02-12T03:17:53;103992.56;;;6.04;100.00
71768;BME280;59604;52.138;5.446;2023-02-12T03:20:30;103997.81;;;6.04;100.00
71768;BME280;59604;52.138;5.446;2023-02-12T03:23:11;104001.31;;;6.03;100.00
71768;BME280;59604;52.138;5.446;2023-02-12T03:28:28;103997.63;;;6.07;100.00
71768;BME280;59604;52.138;5.446;2023-02-12T03:33:50;103998.50;;;6.08;100.00
71768;BME280;59604;52.138;5.446;2023-02-12T03:36:58;103998.31;;;6.11;100.00
71768;BME280;59604;52.138;5.446;2023-02-12T03:53:28;104006.09;;;6.12;100.00
71768;BME280;59604;52.138;5.446;2023-02-12T03:56:36;104006.09;;;6.12;100.00
71768;BME280;59604;52.138;5.446;2023-02-12T03:59:05;104006.94;;;6.13;100.00
71768;BME280;59604;52.138;5.446;2023-02-12T04:01:37;104019.19;;;6.12;100.00
71768;BME280;59604;52.138;5.446;2023-02-12T04:04:11;104014.78;;;6.13;100.00
71768;BME280;59604;52.138;5.446;2023-02-12T04:06:43;104012.00;;;6.16;100.00
71768;BME280;59604;52.138;5.446;2023-02-12T04:09:16;104014.47;;;6.19;100.00
71768;BME280;59604;52.138;5.446;2023-02-12T04:14:45;104024.75;;;6.22;100.00
71768;BME280;59604;52.138;5.446;2023-02-12T04:23:15;104028.06;;;6.25;100.00
71768;BME280;59604;52.138;5.446;2023-02-12T04:37:11;104038.38;;;6.28;100.00
71768;BME280;59604;52.138;5.446;2023-02-12T04:39:47;104040.06;;;6.29;100.00
71768;BME280;59604;52.138;5.446;2023-02-12T04:42:19;104042.63;;;6.31;100.00
71768;BME280;59604;52.138;5.446;2023-02-12T04:44:51;104033.81;;;6.32;100.00
71768;BME280;59604;52.138;5.446;2023-02-12T04:47:24;104045.06;;;6.34;100.00
71768;BME280;59604;52.138;5.446;2023-02-12T04:49:56;104046.91;;;6.32;100.00
71768;BME280;59604;52.138;5.446;2023-02-12T04:52:29;104050.03;;;6.23;100.00
71768;BME280;59604;52.138;5.446;2023-02-12T04:55:00;104048.81;;;6.13;100.00
71768;BME280;59604;52.138;5.446;2023-02-12T04:57:33;104050.81;;;6.08;100.00
71768;BME280;59604;52.138;5.446;2023-02-12T05:00:07;104049.22;;;6.05;100.00
71768;BME280;59604;52.138;5.446;2023-02-12T05:02:38;104043.97;;;6.05;100.00
71768;BME280;59604;52.138;5.446;2023-02-12T05:05:11;104039.34;;;6.10;100.00
71768;BME280;59604;52.138;5.446;2023-02-12T05:07:43;104046.25;;;6.11;100.00
71768;BME280;59604;52.138;5.446;2023-02-12T05:10:15;104061.81;;;6.14;100.00
71768;BME280;59604;52.138;5.446;2023-02-12T05:12:50;104046.88;;;6.16;100.00
71768;BME280;59604;52.138;5.446;2023-02-12T05:15:20;104040.66;;;6.19;100.00
71768;BME280;59604;52.138;5.446;2023-02-12T05:17:52;104049.34;;;6.19;100.00
71768;BME280;59604;52.138;5.446;2023-02-12T05:20:23;104047.56;;;6.20;100.00
71768;BME280;59604;52.138;5.446;2023-02-12T05:22:55;104049.81;;;6.10;100.00
71768;BME280;59604;52.138;5.446;2023-02-12T05:25:32;104051.13;;;6.01;100.00
71768;BME280;59604;52.138;5.446;2023-02-12T05:28:06;104049.75;;;5.94;100.00
71768;BME280;59604;52.138;5.446;2023-02-12T05:30:38;104052.44;;;5.93;100.00
71768;BME280;59604;52.138;5.446;2023-02-12T05:33:10;104052.38;;;5.94;100.00
71768;BME280;59604;52.138;5.446;2023-02-12T05:35:41;104051.28;;;5.98;100.00
71768;BME280;59604;52.138;5.446;2023-02-12T05:38:15;104048.56;;;6.00;100.00
71768;BME280;59604;52.138;5.446;2023-02-12T05:40:47;104054.59;;;6.02;100.00
71768;BME280;59604;52.138;5.446;2023-02-12T05:43:18;104051.97;;;6.02;100.00
71768;BME280;59604;52.138;5.446;2023-02-12T05:45:59;104054.44;;;6.05;100.00
71768;BME280;59604;52.138;5.446;2023-02-12T05:48:31;104050.81;;;6.08;100.00
71768;BME280;59604;52.138;5.446;2023-02-12T05:51:13;104053.34;;;6.09;100.00
71768;BME280;59604;52.138;5.446;2023-02-12T05:53:47;104056.72;;;6.11;100.00
71768;BME280;59604;52.138;5.446;2023-02-12T05:56:29;104051.66;;;6.08;100.00
71768;BME280;59604;52.138;5.446;2023-02-12T05:59:01;104063.38;;;6.01;100.00
71768;BME280;59604;52.138;5.446;2023-02-12T06:01:32;104058.72;;;5.89;100.00
71768;BME280;59604;52.138;5.446;2023-02-12T06:04:00;104060.03;;;5.80;100.00
71768;BME280;59604;52.138;5.446;2023-02-12T06:06:30;104065.56;;;5.74;100.00
71768;BME280;59604;52.138;5.446;2023-02-12T06:09:01;104057.94;;;5.69;100.00
71768;BME280;59604;52.138;5.446;2023-02-12T06:11:31;104068.41;;;5.69;100.00
71768;BME280;59604;52.138;5.446;2023-02-12T06:14:01;104058.72;;;5.71;100.00
71768;BME280;59604;52.138;5.446;2023-02-12T06:16:32;104067.03;;;5.79;100.00
71768;BME280;59604;52.138;5.446;2023-02-12T06:19:02;104060.63;;;5.85;100.00
71768;BME280;59604;52.138;5.446;2023-02-12T06:21:30;104066.56;;;5.89;100.00
71768;BME280;59604;52.138;5.446;2023-02-12T06:23:57;104064.66;;;5.92;100.00
71768;BME280;59604;52.138;5.446;2023-02-12T06:26:24;104059.28;;;5.95;100.00
71768;BME280;59604;52.138;5.446;2023-02-12T06:28:52;104052.13;;;5.99;100.00
71768;BME280;59604;52.138;5.446;2023-02-12T06:31:30;104058.03;;;6.02;100.00
71768;BME280;59604;52.138;5.446;2023-02-12T06:34:00;104058.13;;;6.01;100.00
71768;BME280;59604;52.138;5.446;2023-02-12T06:36:27;104048.56;;;6.00;100.00
71768;BME280;59604;52.138;5.446;2023-02-12T06:38:54;104058.19;;;5.99;100.00
71768;BME280;59604;52.138;5.446;2023-02-12T06:41:22;104062.00;;;5.94;100.00
71768;BME280;59604;52.138;5.446;2023-02-12T06:43:49;104068.41;;;5.87;100.00
71768;BME280;59604;52.138;5.446;2023-02-12T06:46:16;104067.72;;;5.83;100.00
71768;BME280;59604;52.138;5.446;2023-02-12T06:48:44;104064.03;;;5.87;100.00
71768;BME280;59604;52.138;5.446;2023-02-12T06:51:16;104067.44;;;5.89;100.00
71768;BME280;59604;52.138;5.446;2023-02-12T06:53:44;104083.81;;;5.93;100.00
71768;BME280;59604;52.138;5.446;2023-02-12T06:56:19;104075.81;;;5.96;100.00
71768;BME280;59604;52.138;5.446;2023-02-12T06:59:16;104067.91;;;5.97;100.00
71768;BME280;59604;52.138;5.446;2023-02-12T07:01:50;104074.69;;;6.01;100.00
71768;BME280;59604;52.138;5.446;2023-02-12T07:04:17;104080.59;;;6.05;100.00
71768;BME280;59604;52.138;5.446;2023-02-12T07:06:46;104076.13;;;6.07;100.00
71768;BME280;59604;52.138;5.446;2023-02-12T07:09:14;104086.59;;;6.07;100.00
71768;BME280;59604;52.138;5.446;2023-02-12T07:11:50;104083.22;;;6.05;100.00
71768;BME280;59604;52.138;5.446;2023-02-12T07:14:25;104082.28;;;6.06;100.00
71768;BME280;59604;52.138;5.446;2023-02-12T07:16:54;104085.69;;;6.08;100.00
71768;BME280;59604;52.138;5.446;2023-02-12T07:19:23;104091.75;;;6.09;100.00
71768;BME280;59604;52.138;5.446;2023-02-12T07:21:50;104085.59;;;6.10;100.00
71768;BME280;59604;52.138;5.446;2023-02-12T07:24:17;104087.22;;;6.12;100.00
71768;BME280;59604;52.138;5.446;2023-02-12T07:26:44;104089.00;;;6.12;100.00
71768;BME280;59604;52.138;5.446;2023-02-12T07:29:11;104099.22;;;6.16;100.00
71768;BME280;59604;52.138;5.446;2023-02-12T07:31:39;104097.28;;;6.20;100.00
71768;BME280;59604;52.138;5.446;2023-02-12T07:34:19;104106.69;;;6.24;100.00
71768;BME280;59604;52.138;5.446;2023-02-12T07:36:46;104110.00;;;6.27;100.00
71768;BME280;59604;52.138;5.446;2023-02-12T07:39:13;104109.00;;;6.30;100.00
71768;BME280;59604;52.138;5.446;2023-02-12T07:41:40;104114.13;;;6.32;100.00
71768;BME280;59604;52.138;5.446;2023-02-12T07:44:09;104114.91;;;6.34;100.00
71768;BME280;59604;52.138;5.446;2023-02-12T07:46:39;104113.22;;;6.33;100.00
71768;BME280;59604;52.138;5.446;2023-02-12T07:49:09;104115.91;;;6.31;100.00
71768;BME280;59604;52.138;5.446;2023-02-12T07:51:38;104118.44;;;6.33;100.00
71768;BME280;59604;52.138;5.446;2023-02-12T07:54:09;104114.00;;;6.35;100.00
71768;BME280;59604;52.138;5.446;2023-02-12T07:56:38;104116.44;;;6.38;100.00
71768;BME280;59604;52.138;5.446;2023-02-12T07:59:08;104117.97;;;6.42;100.00
71768;BME280;59604;52.138;5.446;2023-02-12T08:01:38;104116.91;;;6.46;100.00
71768;BME280;59604;52.138;5.446;2023-02-12T08:04:21;104128.91;;;6.50;100.00
71768;BME280;59604;52.138;5.446;2023-02-12T08:06:50;104126.19;;;6.51;100.00
71768;BME280;59604;52.138;5.446;2023-02-12T08:09:29;104134.81;;;6.53;100.00
71768;BME280;59604;52.138;5.446;2023-02-12T08:12:04;104135.59;;;6.56;100.00
71768;BME280;59604;52.138;5.446;2023-02-12T08:14:32;104131.97;;;6.58;100.00
71768;BME280;59604;52.138;5.446;2023-02-12T08:16:59;104145.84;;;6.60;100.00
71768;BME280;59604;52.138;5.446;2023-02-12T08:19:26;104140.59;;;6.60;100.00
71768;BME280;59604;52.138;5.446;2023-02-12T08:21:56;104138.72;;;6.62;100.00
71768;BME280;59604;52.138;5.446;2023-02-12T08:24:23;104136.78;;;6.66;100.00
71768;BME280;59604;52.138;5.446;2023-02-12T08:26:50;104137.56;;;6.68;100.00
71768;BME280;59604;52.138;5.446;2023-02-12T08:29:20;104142.56;;;6.72;100.00
71768;BME280;59604;52.138;5.446;2023-02-12T08:31:48;104147.63;;;6.75;100.00
71768;BME280;59604;52.138;5.446;2023-02-12T08:34:21;104146.63;;;6.78;100.00
71768;BME280;59604;52.138;5.446;2023-02-12T08:36:50;104147.47;;;6.78;100.00
71768;BME280;59604;52.138;5.446;2023-02-12T08:39:20;104150.84;;;6.81;99.96
71768;BME280;59604;52.138;5.446;2023-02-12T08:41:48;104152.47;;;6.83;99.77
71768;BME280;59604;52.138;5.446;2023-02-12T08:44:15;104159.34;;;6.86;99.78
71768;BME280;59604;52.138;5.446;2023-02-12T08:46:46;104167.94;;;6.88;99.75
71768;BME280;59604;52.138;5.446;2023-02-12T08:49:17;104160.09;;;6.88;99.74
71768;BME280;59604;52.138;5.446;2023-02-12T08:51:48;104166.16;;;6.88;99.21
71768;BME280;59604;52.138;5.446;2023-02-12T08:54:19;104171.25;;;6.91;99.56
71768;BME280;59604;52.138;5.446;2023-02-12T08:56:47;104171.94;;;6.95;99.58
71768;BME280;59604;52.138;5.446;2023-02-12T08:59:15;104167.53;;;6.95;99.25
71768;BME280;59604;52.138;5.446;2023-02-12T09:01:42;104169.16;;;6.98;99.47
71768;BME280;59604;52.138;5.446;2023-02-12T09:04:18;104170.84;;;6.99;99.12
71768;BME280;59604;52.138;5.446;2023-02-12T09:06:47;104174.25;;;7.01;98.84
71768;BME280;59604;52.138;5.446;2023-02-12T09:09:14;104168.16;;;7.00;99.13
71768;BME280;59604;52.138;5.446;2023-02-12T09:11:42;104168.91;;;7.02;98.83
71768;BME280;59604;52.138;5.446;2023-02-12T09:14:13;104170.63;;;7.04;98.82
71768;BME280;59604;52.138;5.446;2023-02-12T09:16:40;104165.28;;;7.05;98.77
71768;BME280;59604;52.138;5.446;2023-02-12T09:19:09;104181.78;;;7.07;98.95
71768;BME280;59604;52.138;5.446;2023-02-12T09:21:37;104181.59;;;7.10;98.85
71768;BME280;59604;52.138;5.446;2023-02-12T09:24:04;104173.66;;;7.12;98.54
71768;BME280;59604;52.138;5.446;2023-02-12T09:26:31;104182.22;;;7.15;98.43
71768;BME280;59604;52.138;5.446;2023-02-12T09:29:00;104182.97;;;7.17;98.38
71768;BME280;59604;52.138;5.446;2023-02-12T09:31:30;104182.88;;;7.19;98.49
71768;BME280;59604;52.138;5.446;2023-02-12T09:33:59;104179.22;;;7.21;98.25
71768;BME280;59604;52.138;5.446;2023-02-12T09:36:26;104180.78;;;7.25;98.14
71768;BME280;59604;52.138;5.446;2023-02-12T09:38:53;104183.31;;;7.27;98.27
71768;BME280;59604;52.138;5.446;2023-02-12T09:46:59;104182.06;;;7.34;97.81
71768;BME280;59604;52.138;5.446;2023-02-12T09:49:54;104178.50;;;7.35;97.71
71768;BME280;59604;52.138;5.446;2023-02-12T09:52:27;104178.22;;;7.40;97.73
71768;BME280;59604;52.138;5.446;2023-02-12T09:54:55;104177.22;;;7.42;97.36
71768;BME280;59604;52.138;5.446;2023-02-12T09:57:31;104178.75;;;7.46;97.48
71768;BME280;59604;52.138;5.446;2023-02-12T10:00:06;104178.56;;;7.49;97.17
71768;BME280;59604;52.138;5.446;2023-02-12T10:02:38;104177.56;;;7.52;97.30
71768;BME280;59604;52.138;5.446;2023-02-12T10:05:18;104185.19;;;7.57;96.82
71768;BME280;59604;52.138;5.446;2023-02-12T10:14:02;104170.63;;;7.67;96.38
71768;BME280;59604;52.138;5.446;2023-02-12T10:17:07;104181.03;;;7.68;96.15
71768;BME280;59604;52.138;5.446;2023-02-12T10:28:14;104180.59;;;7.76;95.73
71768;BME280;59604;52.138;5.446;2023-02-12T10:31:08;104176.09;;;7.78;95.42
71768;BME280;59604;52.138;5.446;2023-02-12T10:33:43;104186.44;;;7.81;95.26
71768;BME280;59604;52.138;5.446;2023-02-12T10:41:44;104182.59;;;7.87;94.54
71768;BME280;59604;52.138;5.446;2023-02-12T10:44:16;104186.00;;;7.89;94.77
71768;BME280;59604;52.138;5.446;2023-02-12T10:46:43;104190.19;;;7.91;94.32
71768;BME280;59604;52.138;5.446;2023-02-12T10:49:16;104177.00;;;7.93;94.38
71768;BME280;59604;52.138;5.446;2023-02-12T10:52:22;104176.00;;;7.95;94.30
71768;BME280;59604;52.138;5.446;2023-02-12T10:54:55;104175.91;;;7.97;94.16
71768;BME280;59604;52.138;5.446;2023-02-12T10:57:23;104180.88;;;8.02;94.10
71768;BME280;59604;52.138;5.446;2023-02-12T10:59:54;104180.81;;;8.03;93.94
71768;BME280;59604;52.138;5.446;2023-02-12T11:02:29;104180.69;;;8.05;94.06
71768;BME280;59604;52.138;5.446;2023-02-12T11:04:58;104176.22;;;8.07;93.59
71768;BME280;59604;52.138;5.446;2023-02-12T11:07:26;104177.81;;;8.09;93.86
71768;BME280;59604;52.138;5.446;2023-02-12T11:09:55;104179.41;;;8.12;93.72
71768;BME280;59604;52.138;5.446;2023-02-12T11:12:34;104181.03;;;8.14;93.04
71768;BME280;59604;52.138;5.446;2023-02-12T11:15:21;104179.31;;;8.13;93.03
71768;BME280;59604;52.138;5.446;2023-02-12T11:20:33;104179.13;;;8.16;92.44
71768;BME280;59604;52.138;5.446;2023-02-12T11:23:06;104172.88;;;8.19;92.36
71768;BME280;59604;52.138;5.446;2023-02-12T11:28:22;104167.34;;;8.23;91.73
71768;BME280;59604;52.138;5.446;2023-02-12T11:33:32;104170.63;;;8.27;91.12
71768;BME280;59604;52.138;5.446;2023-02-12T11:36:18;104173.09;;;8.30;91.26
71768;BME280;59604;52.138;5.446;2023-02-12T11:38:56;104163.25;;;8.34;90.89
71768;BME280;59604;52.138;5.446;2023-02-12T11:41:37;104166.72;;;8.34;90.53
71768;BME280;59604;52.138;5.446;2023-02-12T11:44:09;104162.16;;;8.38;90.86
71768;BME280;59604;52.138;5.446;2023-02-12T11:46:38;104157.81;;;8.37;90.82
71768;BME280;59604;52.138;5.446;2023-02-12T11:49:23;104140.00;;;8.42;90.21
71768;BME280;59604;52.138;5.446;2023-02-12T11:51:51;104157.28;;;8.46;90.60
71768;BME280;59604;52.138;5.446;2023-02-12T11:54:22;104151.78;;;8.51;90.64
71768;BME280;59604;52.138;5.446;2023-02-12T11:56:50;104159.44;;;8.54;90.25
71768;BME280;59604;52.138;5.446;2023-02-12T12:02:23;104153.94;;;8.58;89.75
71768;BME280;59604;52.138;5.446;2023-02-12T12:04:54;104151.31;;;8.58;89.67
71768;BME280;59604;52.138;5.446;2023-02-12T12:07:38;104153.66;;;8.63;89.66
71768;BME280;59604;52.138;5.446;2023-02-12T12:10:14;104146.44;;;8.66;88.86
71768;BME280;59604;52.138;5.446;2023-02-12T12:12:51;104141.81;;;8.70;89.12
71768;BME280;59604;52.138;5.446;2023-02-12T12:15:37;104131.97;;;8.74;88.47
71768;BME280;59604;52.138;5.446;2023-02-12T12:18:48;104136.28;;;8.75;88.34
71768;BME280;59604;52.138;5.446;2023-02-12T12:24:20;104128.94;;;8.80;87.67
71768;BME280;59604;52.138;5.446;2023-02-12T12:26:56;104128.75;;;8.83;87.73
71768;BME280;59604;52.138;5.446;2023-02-12T12:29:39;104123.44;;;8.84;87.27
71768;BME280;59604;52.138;5.446;2023-02-12T12:32:11;104122.59;;;8.84;86.94
71768;BME280;59604;52.138;5.446;2023-02-12T12:34:40;104120.78;;;8.84;85.94
71768;BME280;59604;52.138;5.446;2023-02-12T12:37:40;104117.88;;;8.89;86.62
71768;BME280;59604;52.138;5.446;2023-02-12T12:40:38;104115.06;;;8.92;86.92
71768;BME280;59604;52.138;5.446;2023-02-12T12:43:35;104113.25;;;8.92;86.39
71768;BME280;59604;52.138;5.446;2023-02-12T12:56:52;104101.81;;;8.93;85.04
71768;BME280;59604;52.138;5.446;2023-02-12T12:59:38;104109.50;;;8.97;85.10
71768;BME280;59604;52.138;5.446;2023-02-12T13:05:11;104106.88;;;8.97;84.64
71768;BME280;59604;52.138;5.446;2023-02-12T13:10:41;104096.34;;;8.97;84.11
71768;BME280;59604;52.138;5.446;2023-02-12T13:13:14;104100.84;;;8.94;83.84
71768;BME280;59604;52.138;5.446;2023-02-12T13:24:55;104088.56;;;8.95;84.40
71768;BME280;59604;52.138;5.446;2023-02-12T13:27:45;104093.06;;;8.93;83.01
71768;BME280;59604;52.138;5.446;2023-02-12T13:32:43;104086.97;;;8.92;83.75
71768;BME280;59604;52.138;5.446;2023-02-12T13:35:18;104081.72;;;8.92;82.98
71768;BME280;59604;52.138;5.446;2023-02-12T13:37:51;104087.94;;;8.91;83.39
71768;BME280;59604;52.138;5.446;2023-02-12T13:40:24;104082.56;;;8.93;83.62
71768;BME280;59604;52.138;5.446;2023-02-12T13:50:41;104077.31;;;8.93;83.35
71768;BME280;59604;52.138;5.446;2023-02-12T14:06:21;104070.84;;;8.84;82.95
71768;BME280;59604;52.138;5.446;2023-02-12T14:12:43;104064.00;;;8.82;82.85
71768;BME280;59604;52.138;5.446;2023-02-12T14:15:40;104053.47;;;8.82;82.92
71768;BME280;59604;52.138;5.446;2023-02-12T14:18:27;104063.16;;;8.81;82.86
71768;BME280;59604;52.138;5.446;2023-02-12T14:27:56;104060.25;;;8.71;82.87
71768;BME280;59604;52.138;5.446;2023-02-12T14:30:40;104051.53;;;8.71;82.83
71768;BME280;59604;52.138;5.446;2023-02-12T14:33:25;104049.91;;;8.68;82.69
71768;BME280;59604;52.138;5.446;2023-02-12T14:36:35;104046.56;;;8.66;82.63
71768;BME280;59604;52.138;5.446;2023-02-12T14:41:53;104049.47;;;8.62;82.90
71768;BME280;59604;52.138;5.446;2023-02-12T14:44:36;104050.41;;;8.61;82.63
71768;BME280;59604;52.138;5.446;2023-02-12T14:50:16;104052.28;;;8.59;83.17
71768;BME280;59604;52.138;5.446;2023-02-12T14:52:50;104047.31;;;8.54;83.24
71768;BME280;59604;52.138;5.446;2023-02-12T14:55:56;104041.50;;;8.49;82.51
71768;BME280;59604;52.138;5.446;2023-02-12T14:58:31;104041.63;;;8.48;82.74
71768;BME280;59604;52.138;5.446;2023-02-12T15:01:41;104043.47;;;8.45;82.58
71768;BME280;59604;52.138;5.446;2023-02-12T15:04:50;104047.22;;;8.41;83.14
71768;BME280;59604;52.138;5.446;2023-02-12T15:12:02;104051.00;;;8.37;82.50
71768;BME280;59604;52.138;5.446;2023-02-12T15:15:35;104051.06;;;8.36;82.88
71768;BME280;59604;52.138;5.446;2023-02-12T15:21:29;104051.97;;;8.35;83.45
71768;BME280;59604;52.138;5.446;2023-02-12T15:24:11;104042.53;;;8.32;83.17
71768;BME280;59604;52.138;5.446;2023-02-12T15:26:47;104039.13;;;8.30;83.44
71768;BME280;59604;52.138;5.446;2023-02-12T15:29:36;104047.19;;;8.27;83.17
71768;BME280;59604;52.138;5.446;2023-02-12T15:32:28;104043.72;;;8.27;83.72
71768;BME280;59604;52.138;5.446;2023-02-12T15:34:55;104048.22;;;8.24;83.66
71768;BME280;59604;52.138;5.446;2023-02-12T15:37:25;104047.50;;;8.22;83.66
71768;BME280;59604;52.138;5.446;2023-02-12T15:39:56;104045.69;;;8.23;83.28
71768;BME280;59604;52.138;5.446;2023-02-12T15:42:31;104042.22;;;8.22;83.21
71768;BME280;59604;52.138;5.446;2023-02-12T15:47:33;104032.03;;;8.18;83.64
71768;BME280;59604;52.138;5.446;2023-02-12T15:50:00;104039.06;;;8.17;83.57
71768;BME280;59604;52.138;5.446;2023-02-12T15:52:32;104026.94;;;8.15;82.97
71768;BME280;59604;52.138;5.446;2023-02-12T15:55:04;104039.31;;;8.13;83.33
71768;BME280;59604;52.138;5.446;2023-02-12T15:57:32;104033.31;;;8.11;83.55
71768;BME280;59604;52.138;5.446;2023-02-12T16:00:09;104037.06;;;8.07;83.28
71768;BME280;59604;52.138;5.446;2023-02-12T16:02:36;104026.56;;;8.07;83.57
71768;BME280;59604;52.138;5.446;2023-02-12T16:05:04;104033.59;;;8.06;83.26
71768;BME280;59604;52.138;5.446;2023-02-12T16:07:34;104028.53;;;8.03;82.88
71768;BME280;59604;52.138;5.446;2023-02-12T16:10:04;104033.88;;;8.02;82.22
71768;BME280;59604;52.138;5.446;2023-02-12T16:12:33;104027.88;;;7.99;81.66
71768;BME280;59604;52.138;5.446;2023-02-12T16:15:03;104032.38;;;7.97;81.53
71768;BME280;59604;52.138;5.446;2023-02-12T16:17:34;104026.38;;;7.95;81.52
71768;BME280;59604;52.138;5.446;2023-02-12T16:20:17;104031.63;;;7.95;81.97
71768;BME280;59604;52.138;5.446;2023-02-12T16:22:47;104031.81;;;7.92;81.83
71768;BME280;59604;52.138;5.446;2023-02-12T16:25:17;104033.66;;;7.90;81.80
71768;BME280;59604;52.138;5.446;2023-02-12T16:28:05;104026.72;;;7.89;82.08
71768;BME280;59604;52.138;5.446;2023-02-12T16:30:36;104033.78;;;7.89;81.86
71768;BME280;59604;52.138;5.446;2023-02-12T16:33:28;104030.47;;;7.85;81.58